sensor_id;sensor_type;location;lat;lon;timestamp;pressure;altitude;pressure_sealevel;temperature;humidity
68859;BME280;55864;49.238;8.092;2023-02-23T00:00:34;99086.84;;;9.74;88.39
68859;BME280;55864;49.238;8.092;2023-02-23T00:02:34;99092.38;;;9.71;88.95
68859;BME280;55864;49.238;8.092;2023-02-23T00:04:35;99087.44;;;9.68;89.71
68859;BME280;55864;49.238;8.092;2023-02-23T00:06:36;99089.22;;;9.68;89.46
68859;BME280;55864;49.238;8.092;2023-02-23T00:08:37;99088.53;;;9.66;89.65
68859;BME280;55864;49.238;8.092;2023-02-23T00:10:38;99083.59;;;9.63;89.66
68859;BME280;55864;49.238;8.092;2023-02-23T00:12:38;99082.09;;;9.60;90.24
68859;BME280;55864;49.238;8.092;2023-02-23T00:14:39;99083.34;;;9.56;91.35
68859;BME280;55864;49.238;8.092;2023-02-23T00:16:41;99081.72;;;9.55;90.98
68859;BME280;55864;49.238;8.092;2023-02-23T00:18:43;99086.13;;;9.55;91.45
68859;BME280;55864;49.238;8.092;2023-02-23T00:20:43;99073.16;;;9.53;91.80
68859;BME280;55864;49.238;8.092;2023-02-23T00:22:44;99081.16;;;9.52;92.21
68859;BME280;55864;49.238;8.092;2023-02-23T00:24:44;99085.59;;;9.51;92.13
68859;BME280;55864;49.238;8.092;2023-02-23T00:26:46;99085.72;;;9.49;92.74
68859;BME280;55864;49.238;8.092;2023-02-23T00:28:47;99084.06;;;9.48;92.54
68859;BME280;55864;49.238;8.092;2023-02-23T00:30:49;99080.06;;;9.44;92.96
68859;BME280;55864;49.238;8.092;2023-02-23T00:32:52;99078.59;;;9.42;92.62
68859;BME280;55864;49.238;8.092;2023-02-23T00:34:52;99082.00;;;9.42;92.96
68859;BME280;55864;49.238;8.092;2023-02-23T00:36:53;99075.13;;;9.41;92.74
68859;BME280;55864;49.238;8.092;2023-02-23T00:38:55;99081.78;;;9.36;92.86
68859;BME280;55864;49.238;8.092;2023-02-23T00:40:56;99079.31;;;9.34;93.25
68859;BME280;55864;49.238;8.092;2023-02-23T00:42:56;99078.63;;;9.32;92.94
68859;BME280;55864;49.238;8.092;2023-02-23T00:44:57;99071.88;;;9.30;93.22
68859;BME280;55864;49.238;8.092;2023-02-23T00:46:57;99072.84;;;9.29;93.71
68859;BME280;55864;49.238;8.092;2023-02-23T00:48:59;99067.59;;;9.29;93.99
68859;BME280;55864;49.238;8.092;2023-02-23T00:51:01;99070.34;;;9.27;93.43
68859;BME280;55864;49.238;8.092;2023-02-23T00:53:01;99069.00;;;9.23;93.95
68859;BME280;55864;49.238;8.092;2023-02-23T00:55:02;99078.66;;;9.23;93.40
68859;BME280;55864;49.238;8.092;2023-02-23T00:57:03;99076.88;;;9.23;93.30
68859;BME280;55864;49.238;8.092;2023-02-23T00:59:03;99075.19;;;9.22;93.17
68859;BME280;55864;49.238;8.092;2023-02-23T01:01:04;99073.56;;;9.21;93.64
68859;BME280;55864;49.238;8.092;2023-02-23T01:03:05;99066.81;;;9.19;93.71
68859;BME280;55864;49.238;8.092;2023-02-23T01:05:08;99073.16;;;9.16;93.15
68859;BME280;55864;49.238;8.092;2023-02-23T01:07:08;99074.97;;;9.16;93.62
68859;BME280;55864;49.238;8.092;2023-02-23T01:09:11;99076.91;;;9.14;93.63
68859;BME280;55864;49.238;8.092;2023-02-23T01:11:15;99078.84;;;9.12;93.34
68859;BME280;55864;49.238;8.092;2023-02-23T01:13:15;99068.47;;;9.10;93.71
68859;BME280;55864;49.238;8.092;2023-02-23T01:15:16;99069.31;;;9.11;93.82
68859;BME280;55864;49.238;8.092;2023-02-23T01:17:17;99070.28;;;9.10;93.68
68859;BME280;55864;49.238;8.092;2023-02-23T01:19:18;99073.84;;;9.09;93.91
68859;BME280;55864;49.238;8.092;2023-02-23T01:21:22;99073.06;;;9.08;94.41
68859;BME280;55864;49.238;8.092;2023-02-23T01:23:23;99072.22;;;9.08;95.00
68859;BME280;55864;49.238;8.092;2023-02-23T01:25:23;99067.13;;;9.06;93.74
68859;BME280;55864;49.238;8.092;2023-02-23T01:27:24;99074.31;;;9.04;93.30
68859;BME280;55864;49.238;8.092;2023-02-23T01:29:28;99071.69;;;9.04;93.34
68859;BME280;55864;49.238;8.092;2023-02-23T01:31:29;99064.78;;;9.03;93.79
68859;BME280;55864;49.238;8.092;2023-02-23T01:33:29;99075.25;;;9.03;93.37
68859;BME280;55864;49.238;8.092;2023-02-23T01:35:33;99073.63;;;9.02;93.05
68859;BME280;55864;49.238;8.092;2023-02-23T01:37:36;99066.56;;;9.03;92.59
68859;BME280;55864;49.238;8.092;2023-02-23T01:39:37;99070.31;;;9.00;93.37
68859;BME280;55864;49.238;8.092;2023-02-23T01:41:38;99063.28;;;9.01;92.66
68859;BME280;55864;49.238;8.092;2023-02-23T01:43:54;99065.91;;;9.01;93.09
68859;BME280;55864;49.238;8.092;2023-02-23T01:45:56;99066.03;;;8.99;92.80
68859;BME280;55864;49.238;8.092;2023-02-23T01:48:01;99064.25;;;9.00;93.51
68859;BME280;55864;49.238;8.092;2023-02-23T01:50:03;99064.25;;;9.00;92.67
68859;BME280;55864;49.238;8.092;2023-02-23T01:52:07;99061.75;;;8.98;93.45
68859;BME280;55864;49.238;8.092;2023-02-23T01:54:12;99060.09;;;8.97;92.93
68859;BME280;55864;49.238;8.092;2023-02-23T01:56:17;99061.22;;;8.95;92.88
68859;BME280;55864;49.238;8.092;2023-02-23T01:58:21;99055.16;;;8.94;93.58
68859;BME280;55864;49.238;8.092;2023-02-23T02:00:23;99059.56;;;8.94;94.14
68859;BME280;55864;49.238;8.092;2023-02-23T02:02:27;99061.50;;;8.92;93.65
68859;BME280;55864;49.238;8.092;2023-02-23T02:04:34;99062.31;;;8.92;93.86
68859;BME280;55864;49.238;8.092;2023-02-23T02:06:37;99059.84;;;8.91;94.08
68859;BME280;55864;49.238;8.092;2023-02-23T02:08:43;99059.84;;;8.91;94.25
68859;BME280;55864;49.238;8.092;2023-02-23T02:10:46;99054.63;;;8.91;93.80
68859;BME280;55864;49.238;8.092;2023-02-23T02:12:50;99065.09;;;8.91;94.04
68859;BME280;55864;49.238;8.092;2023-02-23T02:14:52;99056.41;;;8.90;94.41
68859;BME280;55864;49.238;8.092;2023-02-23T02:17:05;99049.53;;;8.89;94.20
68859;BME280;55864;49.238;8.092;2023-02-23T02:19:44;99047.84;;;8.88;94.37
68859;BME280;55864;49.238;8.092;2023-02-23T02:25:15;99048.84;;;8.87;93.82
68859;BME280;55864;49.238;8.092;2023-02-23T02:27:33;99045.53;;;8.85;93.96
68859;BME280;55864;49.238;8.092;2023-02-23T02:29:56;99047.31;;;8.85;94.80
68859;BME280;55864;49.238;8.092;2023-02-23T02:32:38;99042.38;;;8.82;94.86
68859;BME280;55864;49.238;8.092;2023-02-23T02:35:02;99046.78;;;8.81;94.37
68859;BME280;55864;49.238;8.092;2023-02-23T02:37:26;99046.94;;;8.80;94.81
68859;BME280;55864;49.238;8.092;2023-02-23T02:39:40;99044.44;;;8.78;95.00
68859;BME280;55864;49.238;8.092;2023-02-23T02:41:46;99039.34;;;8.77;94.88
68859;BME280;55864;49.238;8.092;2023-02-23T02:43:53;99041.94;;;8.77;94.73
68859;BME280;55864;49.238;8.092;2023-02-23T02:46:02;99042.09;;;8.75;96.00
68859;BME280;55864;49.238;8.092;2023-02-23T02:48:12;99041.16;;;8.76;96.33
68859;BME280;55864;49.238;8.092;2023-02-23T02:50:16;99034.25;;;8.75;96.43
68859;BME280;55864;49.238;8.092;2023-02-23T02:52:25;99030.09;;;8.73;96.10
68859;BME280;55864;49.238;8.092;2023-02-23T02:54:31;99038.94;;;8.72;95.36
68859;BME280;55864;49.238;8.092;2023-02-23T02:56:37;99041.56;;;8.72;96.76
68859;BME280;55864;49.238;8.092;2023-02-23T02:58:39;99032.03;;;8.71;96.14
68859;BME280;55864;49.238;8.092;2023-02-23T03:00:44;99030.25;;;8.71;95.79
68859;BME280;55864;49.238;8.092;2023-02-23T03:02:47;99032.03;;;8.71;96.13
68859;BME280;55864;49.238;8.092;2023-02-23T03:04:47;99028.75;;;8.69;95.85
68859;BME280;55864;49.238;8.092;2023-02-23T03:06:52;99032.34;;;8.68;96.03
68859;BME280;55864;49.238;8.092;2023-02-23T03:09:03;99029.84;;;8.66;95.97
68859;BME280;55864;49.238;8.092;2023-02-23T03:11:09;99032.34;;;8.68;95.57
68859;BME280;55864;49.238;8.092;2023-02-23T03:13:17;99029.03;;;8.66;96.00
68859;BME280;55864;49.238;8.092;2023-02-23T03:15:36;99027.25;;;8.66;95.87
68859;BME280;55864;49.238;8.092;2023-02-23T03:17:45;99028.19;;;8.65;96.40
68859;BME280;55864;49.238;8.092;2023-02-23T03:19:53;99031.78;;;8.64;96.53
68859;BME280;55864;49.238;8.092;2023-02-23T03:22:04;99035.09;;;8.66;97.52
68859;BME280;55864;49.238;8.092;2023-02-23T03:24:15;99032.59;;;8.74;97.09
68859;BME280;55864;49.238;8.092;2023-02-23T03:26:24;99032.84;;;8.81;98.18
68859;BME280;55864;49.238;8.092;2023-02-23T03:28:32;99036.69;;;8.86;98.33
68859;BME280;55864;49.238;8.092;2023-02-23T03:30:42;99030.06;;;8.92;97.87
68859;BME280;55864;49.238;8.092;2023-02-23T03:32:47;99031.97;;;8.99;98.13
68859;BME280;55864;49.238;8.092;2023-02-23T03:34:54;99029.75;;;9.04;98.10
68859;BME280;55864;49.238;8.092;2023-02-23T03:37:06;99034.41;;;9.10;97.97
68859;BME280;55864;49.238;8.092;2023-02-23T03:39:16;99032.63;;;9.11;97.65
68859;BME280;55864;49.238;8.092;2023-02-23T03:41:20;99036.75;;;9.13;98.11
68859;BME280;55864;49.238;8.092;2023-02-23T03:43:24;99032.22;;;9.15;97.86
68859;BME280;55864;49.238;8.092;2023-02-23T03:45:27;99030.13;;;9.19;97.91
68859;BME280;55864;49.238;8.092;2023-02-23T03:47:34;99033.56;;;9.19;97.54
68859;BME280;55864;49.238;8.092;2023-02-23T03:49:38;99031.06;;;9.18;97.57
68859;BME280;55864;49.238;8.092;2023-02-23T03:51:42;99038.81;;;9.19;97.51
68859;BME280;55864;49.238;8.092;2023-02-23T03:53:49;99034.53;;;9.18;98.09
68859;BME280;55864;49.238;8.092;2023-02-23T03:55:54;99039.50;;;9.21;98.29
68859;BME280;55864;49.238;8.092;2023-02-23T03:57:58;99044.28;;;9.26;97.40
68859;BME280;55864;49.238;8.092;2023-02-23T04:00:05;99038.09;;;9.27;97.50
68859;BME280;55864;49.238;8.092;2023-02-23T04:02:15;99044.28;;;9.26;97.46
68859;BME280;55864;49.238;8.092;2023-02-23T04:04:17;99039.03;;;9.26;97.66
68859;BME280;55864;49.238;8.092;2023-02-23T04:06:23;99046.38;;;9.22;98.47
68859;BME280;55864;49.238;8.092;2023-02-23T04:08:27;99047.88;;;9.25;97.97
68859;BME280;55864;49.238;8.092;2023-02-23T04:10:30;99048.69;;;9.25;98.22
68859;BME280;55864;49.238;8.092;2023-02-23T04:12:39;99046.91;;;9.26;98.35
68859;BME280;55864;49.238;8.092;2023-02-23T04:14:45;99046.06;;;9.25;97.79
68859;BME280;55864;49.238;8.092;2023-02-23T04:16:51;99054.78;;;9.26;97.76
68859;BME280;55864;49.238;8.092;2023-02-23T04:18:52;99055.06;;;9.23;98.40
68859;BME280;55864;49.238;8.092;2023-02-23T04:20:53;99053.41;;;9.22;97.91
68859;BME280;55864;49.238;8.092;2023-02-23T04:22:54;99051.63;;;9.22;98.40
68859;BME280;55864;49.238;8.092;2023-02-23T04:24:54;99056.03;;;9.22;98.37
68859;BME280;55864;49.238;8.092;2023-02-23T04:27:01;99048.16;;;9.22;98.30
68859;BME280;55864;49.238;8.092;2023-02-23T04:29:03;99054.25;;;9.22;98.23
68859;BME280;55864;49.238;8.092;2023-02-23T04:31:06;99051.63;;;9.22;98.65
68859;BME280;55864;49.238;8.092;2023-02-23T04:33:07;99056.72;;;9.24;98.98
68859;BME280;55864;49.238;8.092;2023-02-23T04:35:08;99053.94;;;9.25;98.71
68859;BME280;55864;49.238;8.092;2023-02-23T04:37:09;99058.06;;;9.28;98.52
68859;BME280;55864;49.238;8.092;2023-02-23T04:39:10;99058.59;;;9.31;97.80
68859;BME280;55864;49.238;8.092;2023-02-23T04:41:13;99061.91;;;9.33;97.99
68859;BME280;55864;49.238;8.092;2023-02-23T04:43:14;99061.13;;;9.33;97.59
68859;BME280;55864;49.238;8.092;2023-02-23T04:45:16;99059.28;;;9.33;97.48
68859;BME280;55864;49.238;8.092;2023-02-23T04:47:16;99067.00;;;9.35;98.09
68859;BME280;55864;49.238;8.092;2023-02-23T04:49:17;99057.22;;;9.37;97.63
68859;BME280;55864;49.238;8.092;2023-02-23T04:51:18;99051.84;;;9.38;97.22
68859;BME280;55864;49.238;8.092;2023-02-23T04:53:18;99058.88;;;9.38;97.23
68859;BME280;55864;49.238;8.092;2023-02-23T04:55:20;99063.81;;;9.41;97.35
68859;BME280;55864;49.238;8.092;2023-02-23T04:57:21;99060.09;;;9.43;97.77
68859;BME280;55864;49.238;8.092;2023-02-23T04:59:22;99063.53;;;9.44;97.14
68859;BME280;55864;49.238;8.092;2023-02-23T05:01:24;99063.53;;;9.44;97.11
68859;BME280;55864;49.238;8.092;2023-02-23T05:03:24;99056.47;;;9.44;97.26
68859;BME280;55864;49.238;8.092;2023-02-23T05:05:25;99056.38;;;9.46;97.34
68859;BME280;55864;49.238;8.092;2023-02-23T05:07:26;99059.66;;;9.48;97.22
68859;BME280;55864;49.238;8.092;2023-02-23T05:09:26;99059.38;;;9.51;96.77
68859;BME280;55864;49.238;8.092;2023-02-23T05:11:27;99054.97;;;9.52;96.37
68859;BME280;55864;49.238;8.092;2023-02-23T05:13:27;99057.69;;;9.50;96.39
68859;BME280;55864;49.238;8.092;2023-02-23T05:15:28;99062.94;;;9.50;96.20
68859;BME280;55864;49.238;8.092;2023-02-23T05:17:29;99059.38;;;9.51;96.00
68859;BME280;55864;49.238;8.092;2023-02-23T05:19:30;99057.69;;;9.50;96.12
68859;BME280;55864;49.238;8.092;2023-02-23T05:21:30;99054.53;;;9.46;95.99
68859;BME280;55864;49.238;8.092;2023-02-23T05:23:31;99052.75;;;9.47;95.81
68859;BME280;55864;49.238;8.092;2023-02-23T05:25:32;99057.84;;;9.48;95.78
68859;BME280;55864;49.238;8.092;2023-02-23T05:27:33;99051.13;;;9.46;95.42
68859;BME280;55864;49.238;8.092;2023-02-23T05:29:33;99052.91;;;9.45;96.10
68859;BME280;55864;49.238;8.092;2023-02-23T05:31:34;99053.84;;;9.44;95.39
68859;BME280;55864;49.238;8.092;2023-02-23T05:33:36;99048.63;;;9.44;95.87
68859;BME280;55864;49.238;8.092;2023-02-23T05:35:38;99045.88;;;9.46;95.23
68859;BME280;55864;49.238;8.092;2023-02-23T05:37:39;99042.28;;;9.47;94.77
68859;BME280;55864;49.238;8.092;2023-02-23T05:39:39;99052.06;;;9.45;94.70
68859;BME280;55864;49.238;8.092;2023-02-23T05:41:40;99050.44;;;9.44;95.09
68859;BME280;55864;49.238;8.092;2023-02-23T05:43:41;99046.97;;;9.43;94.56
68859;BME280;55864;49.238;8.092;2023-02-23T05:45:42;99051.13;;;9.46;94.92
68859;BME280;55864;49.238;8.092;2023-02-23T05:47:42;99052.22;;;9.43;94.70
68859;BME280;55864;49.238;8.092;2023-02-23T05:49:44;99053.06;;;9.44;94.81
68859;BME280;55864;49.238;8.092;2023-02-23T05:51:45;99057.47;;;9.43;94.88
68859;BME280;55864;49.238;8.092;2023-02-23T05:53:45;99046.97;;;9.43;94.72
68859;BME280;55864;49.238;8.092;2023-02-23T05:55:46;99047.81;;;9.44;94.80
68859;BME280;55864;49.238;8.092;2023-02-23T05:57:46;99047.13;;;9.42;94.72
68859;BME280;55864;49.238;8.092;2023-02-23T05:59:47;99054.16;;;9.41;93.95
68859;BME280;55864;49.238;8.092;2023-02-23T06:01:47;99050.56;;;9.42;94.39
68859;BME280;55864;49.238;8.092;2023-02-23T06:03:49;99050.72;;;9.41;94.52
68859;BME280;55864;49.238;8.092;2023-02-23T06:05:52;99050.72;;;9.41;93.71
68859;BME280;55864;49.238;8.092;2023-02-23T06:07:53;99055.16;;;9.40;94.37
68859;BME280;55864;49.238;8.092;2023-02-23T06:09:54;99057.78;;;9.40;93.79
68859;BME280;55864;49.238;8.092;2023-02-23T06:11:54;99054.47;;;9.38;93.51
68859;BME280;55864;49.238;8.092;2023-02-23T06:13:56;99056.25;;;9.38;93.20
68859;BME280;55864;49.238;8.092;2023-02-23T06:15:57;99067.69;;;9.37;92.90
68859;BME280;55864;49.238;8.092;2023-02-23T06:17:58;99068.00;;;9.34;93.53
68859;BME280;55864;49.238;8.092;2023-02-23T06:19:58;99064.69;;;9.32;92.71
68859;BME280;55864;49.238;8.092;2023-02-23T06:22:00;99070.22;;;9.29;93.24
68859;BME280;55864;49.238;8.092;2023-02-23T06:24:01;99071.47;;;9.25;93.31
68859;BME280;55864;49.238;8.092;2023-02-23T06:26:01;99076.72;;;9.25;93.62
68859;BME280;55864;49.238;8.092;2023-02-23T06:28:02;99076.88;;;9.23;93.22
68859;BME280;55864;49.238;8.092;2023-02-23T06:30:03;99082.13;;;9.23;93.61
68859;BME280;55864;49.238;8.092;2023-02-23T06:32:04;99082.66;;;9.27;93.28
68859;BME280;55864;49.238;8.092;2023-02-23T06:34:05;99085.94;;;9.29;93.31
68859;BME280;55864;49.238;8.092;2023-02-23T06:36:06;99082.34;;;9.30;92.46
68859;BME280;55864;49.238;8.092;2023-02-23T06:38:08;99084.28;;;9.28;93.01
68859;BME280;55864;49.238;8.092;2023-02-23T06:40:10;99086.22;;;9.26;92.87
68859;BME280;55864;49.238;8.092;2023-02-23T06:42:10;99088.16;;;9.24;93.15
68859;BME280;55864;49.238;8.092;2023-02-23T06:44:11;99092.28;;;9.26;92.93
68859;BME280;55864;49.238;8.092;2023-02-23T06:46:12;99091.47;;;9.26;92.15
68859;BME280;55864;49.238;8.092;2023-02-23T06:48:12;99089.53;;;9.28;92.77
68859;BME280;55864;49.238;8.092;2023-02-23T06:50:13;99086.91;;;9.28;92.12
68859;BME280;55864;49.238;8.092;2023-02-23T06:52:14;99090.22;;;9.30;92.19
68859;BME280;55864;49.238;8.092;2023-02-23T06:54:16;99091.19;;;9.29;91.95
68859;BME280;55864;49.238;8.092;2023-02-23T06:56:17;99097.38;;;9.28;92.34
68859;BME280;55864;49.238;8.092;2023-02-23T06:58:17;99094.91;;;9.26;92.46
68859;BME280;55864;49.238;8.092;2023-02-23T07:00:18;99102.94;;;9.25;91.98
68859;BME280;55864;49.238;8.092;2023-02-23T07:02:19;99100.56;;;9.22;92.02
68859;BME280;55864;49.238;8.092;2023-02-23T07:04:19;99108.44;;;9.22;92.56
68859;BME280;55864;49.238;8.092;2023-02-23T07:06:20;99110.09;;;9.23;92.72
68859;BME280;55864;49.238;8.092;2023-02-23T07:08:21;99113.41;;;9.25;92.77
68859;BME280;55864;49.238;8.092;2023-02-23T07:10:23;99112.44;;;9.26;92.25
68859;BME280;55864;49.238;8.092;2023-02-23T07:12:23;99123.44;;;9.29;91.73
68859;BME280;55864;49.238;8.092;2023-02-23T07:14:24;99123.44;;;9.29;91.74
68859;BME280;55864;49.238;8.092;2023-02-23T07:16:24;99120.41;;;9.34;92.15
68859;BME280;55864;49.238;8.092;2023-02-23T07:18:25;99129.66;;;9.38;92.21
68859;BME280;55864;49.238;8.092;2023-02-23T07:20:26;99133.63;;;9.42;91.87
68859;BME280;55864;49.238;8.092;2023-02-23T07:22:26;99133.78;;;9.40;92.21
68859;BME280;55864;49.238;8.092;2023-02-23T07:24:27;99136.94;;;9.44;91.55
68859;BME280;55864;49.238;8.092;2023-02-23T07:26:29;99135.00;;;9.46;92.10
68859;BME280;55864;49.238;8.092;2023-02-23T07:28:29;99132.25;;;9.47;92.02
68859;BME280;55864;49.238;8.092;2023-02-23T07:30:30;99146.97;;;9.48;91.85
68859;BME280;55864;49.238;8.092;2023-02-23T07:32:30;99142.56;;;9.49;92.63
68859;BME280;55864;49.238;8.092;2023-02-23T07:34:31;99141.59;;;9.50;92.31
68859;BME280;55864;49.238;8.092;2023-02-23T07:36:31;99144.78;;;9.54;92.14
68859;BME280;55864;49.238;8.092;2023-02-23T07:38:32;99140.22;;;9.56;92.13
68859;BME280;55864;49.238;8.092;2023-02-23T07:40:33;99139.91;;;9.59;92.28
68859;BME280;55864;49.238;8.092;2023-02-23T07:42:35;99143.38;;;9.59;91.56
68859;BME280;55864;49.238;8.092;2023-02-23T07:44:38;99141.28;;;9.63;91.69
68859;BME280;55864;49.238;8.092;2023-02-23T07:46:38;99147.91;;;9.67;91.42
68859;BME280;55864;49.238;8.092;2023-02-23T07:48:39;99146.75;;;9.69;91.08
68859;BME280;55864;49.238;8.092;2023-02-23T07:50:40;99147.59;;;9.70;91.00
68859;BME280;55864;49.238;8.092;2023-02-23T07:52:41;99150.06;;;9.71;90.41
68859;BME280;55864;49.238;8.092;2023-02-23T07:54:42;99142.22;;;9.71;90.56
68859;BME280;55864;49.238;8.092;2023-02-23T07:56:42;99146.34;;;9.74;90.64
68859;BME280;55864;49.238;8.092;2023-02-23T07:58:44;99146.19;;;9.75;90.62
68859;BME280;55864;49.238;8.092;2023-02-23T08:02:45;99136.69;;;9.74;90.28
68859;BME280;55864;49.238;8.092;2023-02-23T08:04:46;99136.69;;;9.74;90.32
68859;BME280;55864;49.238;8.092;2023-02-23T08:06:46;99144.25;;;9.77;90.30
68859;BME280;55864;49.238;8.092;2023-02-23T08:08:47;99142.31;;;9.79;90.22
68859;BME280;55864;49.238;8.092;2023-02-23T08:10:47;99136.38;;;9.77;89.67
68859;BME280;55864;49.238;8.092;2023-02-23T08:12:48;99135.69;;;9.75;89.61
68859;BME280;55864;49.238;8.092;2023-02-23T08:14:50;99138.19;;;9.77;89.43
68859;BME280;55864;49.238;8.092;2023-02-23T08:16:51;99142.09;;;9.73;89.35
68859;BME280;55864;49.238;8.092;2023-02-23T08:18:51;99143.19;;;9.70;89.15
68859;BME280;55864;49.238;8.092;2023-02-23T08:20:57;99142.22;;;9.71;89.00
68859;BME280;55864;49.238;8.092;2023-02-23T08:22:57;99142.09;;;9.73;89.34
68859;BME280;55864;49.238;8.092;2023-02-23T08:24:58;99149.81;;;9.74;88.88
68859;BME280;55864;49.238;8.092;2023-02-23T08:27:00;99155.72;;;9.76;89.02
68859;BME280;55864;49.238;8.092;2023-02-23T08:29:01;99151.16;;;9.78;89.05
68859;BME280;55864;49.238;8.092;2023-02-23T08:31:08;99156.94;;;9.82;88.52
68859;BME280;55864;49.238;8.092;2023-02-23T08:33:08;99150.56;;;9.84;88.45
68859;BME280;55864;49.238;8.092;2023-02-23T08:35:09;99149.47;;;9.87;88.61
68859;BME280;55864;49.238;8.092;2023-02-23T08:37:10;99150.81;;;9.91;88.69
68859;BME280;55864;49.238;8.092;2023-02-23T08:39:11;99154.81;;;9.95;88.28
68859;BME280;55864;49.238;8.092;2023-02-23T08:41:11;99154.34;;;9.99;88.76
68859;BME280;55864;49.238;8.092;2023-02-23T08:43:12;99149.66;;;10.03;88.11
68859;BME280;55864;49.238;8.092;2023-02-23T08:45:12;99154.47;;;10.07;88.00
68859;BME280;55864;49.238;8.092;2023-02-23T08:47:15;99153.22;;;10.11;87.22
68859;BME280;55864;49.238;8.092;2023-02-23T08:49:15;99144.94;;;10.16;87.43
68859;BME280;55864;49.238;8.092;2023-02-23T08:51:16;99147.09;;;10.20;86.67
68859;BME280;55864;49.238;8.092;2023-02-23T08:53:16;99140.59;;;10.24;86.54
68859;BME280;55864;49.238;8.092;2023-02-23T08:55:17;99140.16;;;10.29;86.68
68859;BME280;55864;49.238;8.092;2023-02-23T08:57:18;99150.19;;;10.33;86.14
68859;BME280;55864;49.238;8.092;2023-02-23T08:59:18;99142.19;;;10.35;85.19
68859;BME280;55864;49.238;8.092;2023-02-23T09:01:20;99143.00;;;10.35;85.79
68859;BME280;55864;49.238;8.092;2023-02-23T09:03:23;99150.44;;;10.40;85.83
68859;BME280;55864;49.238;8.092;2023-02-23T09:05:23;99151.47;;;10.47;85.71
68859;BME280;55864;49.238;8.092;2023-02-23T09:07:24;99147.44;;;10.53;85.61
68859;BME280;55864;49.238;8.092;2023-02-23T09:09:24;99158.84;;;10.61;85.54
68859;BME280;55864;49.238;8.092;2023-02-23T09:11:25;99156.31;;;10.69;85.15
68859;BME280;55864;49.238;8.092;2023-02-23T09:13:26;99153.59;;;10.79;84.56
68859;BME280;55864;49.238;8.092;2023-02-23T09:15:26;99153.50;;;10.88;84.41
68859;BME280;55864;49.238;8.092;2023-02-23T09:17:27;99158.84;;;10.96;83.08
68859;BME280;55864;49.238;8.092;2023-02-23T09:19:29;99156.28;;;11.04;82.73
68859;BME280;55864;49.238;8.092;2023-02-23T09:21:29;99160.78;;;11.12;82.11
68859;BME280;55864;49.238;8.092;2023-02-23T09:23:30;99162.94;;;11.16;81.87
68859;BME280;55864;49.238;8.092;2023-02-23T09:25:30;99157.88;;;11.23;81.68
68859;BME280;55864;49.238;8.092;2023-02-23T09:27:31;99161.53;;;11.30;81.19
68859;BME280;55864;49.238;8.092;2023-02-23T09:29:31;99167.19;;;11.35;80.78
68859;BME280;55864;49.238;8.092;2023-02-23T09:31:32;99160.31;;;11.42;80.79
68859;BME280;55864;49.238;8.092;2023-02-23T09:33:33;99153.47;;;11.49;80.24
68859;BME280;55864;49.238;8.092;2023-02-23T09:35:35;99161.41;;;11.57;79.75
68859;BME280;55864;49.238;8.092;2023-02-23T09:37:36;99162.59;;;11.63;79.80
68859;BME280;55864;49.238;8.092;2023-02-23T09:39:36;99162.97;;;11.68;78.55
68859;BME280;55864;49.238;8.092;2023-02-23T09:41:58;99164.16;;;11.73;78.35
68859;BME280;55864;49.238;8.092;2023-02-23T09:44:05;99166.97;;;11.80;78.64
68859;BME280;55864;49.238;8.092;2023-02-23T09:46:21;99171.78;;;11.84;77.68
68859;BME280;55864;49.238;8.092;2023-02-23T09:48:27;99165.38;;;11.87;77.53
68859;BME280;55864;49.238;8.092;2023-02-23T09:50:30;99164.22;;;11.89;77.94
68859;BME280;55864;49.238;8.092;2023-02-23T09:52:37;99168.03;;;11.95;77.47
68859;BME280;55864;49.238;8.092;2023-02-23T09:54:39;99169.03;;;11.94;77.03
68859;BME280;55864;49.238;8.092;2023-02-23T09:56:42;99165.25;;;11.96;77.13
68859;BME280;55864;49.238;8.092;2023-02-23T09:58:44;99176.16;;;12.01;77.10
68859;BME280;55864;49.238;8.092;2023-02-23T10:00:50;99174.97;;;12.04;76.72
68859;BME280;55864;49.238;8.092;2023-02-23T10:03:03;99172.56;;;12.10;76.03
68859;BME280;55864;49.238;8.092;2023-02-23T10:05:07;99174.19;;;12.11;75.73
68859;BME280;55864;49.238;8.092;2023-02-23T10:07:13;99169.59;;;12.13;75.61
68859;BME280;55864;49.238;8.092;2023-02-23T10:09:23;99173.09;;;12.22;75.83
68859;BME280;55864;49.238;8.092;2023-02-23T10:11:30;99173.59;;;12.25;75.36
68859;BME280;55864;49.238;8.092;2023-02-23T10:13:39;99175.59;;;12.32;74.80
68859;BME280;55864;49.238;8.092;2023-02-23T10:15:47;99172.47;;;12.36;74.78
68859;BME280;55864;49.238;8.092;2023-02-23T10:18:01;99176.13;;;12.43;74.38
68859;BME280;55864;49.238;8.092;2023-02-23T10:20:16;99173.16;;;12.46;74.19
68859;BME280;55864;49.238;8.092;2023-02-23T10:22:19;99172.16;;;12.47;73.20
68859;BME280;55864;49.238;8.092;2023-02-23T10:24:24;99173.31;;;12.45;73.01
68859;BME280;55864;49.238;8.092;2023-02-23T10:26:33;99174.63;;;12.41;73.10
68859;BME280;55864;49.238;8.092;2023-02-23T10:28:36;99182.53;;;12.41;72.91
68859;BME280;55864;49.238;8.092;2023-02-23T10:30:39;99172.66;;;12.43;72.44
68859;BME280;55864;49.238;8.092;2023-02-23T10:32:45;99169.69;;;12.46;73.34
68859;BME280;55864;49.238;8.092;2023-02-23T10:34:52;99176.63;;;12.47;73.23
68859;BME280;55864;49.238;8.092;2023-02-23T10:36:57;99182.06;;;12.53;72.95
68859;BME280;55864;49.238;8.092;2023-02-23T10:38:58;99177.28;;;12.57;73.36
68859;BME280;55864;49.238;8.092;2023-02-23T10:41:00;99183.56;;;12.56;72.71
68859;BME280;55864;49.238;8.092;2023-02-23T10:43:01;99182.72;;;12.55;72.66
68859;BME280;55864;49.238;8.092;2023-02-23T10:45:02;99185.34;;;12.55;73.29
68859;BME280;55864;49.238;8.092;2023-02-23T10:47:07;99185.34;;;12.55;72.56
68859;BME280;55864;49.238;8.092;2023-02-23T10:49:16;99181.94;;;12.55;71.81
68859;BME280;55864;49.238;8.092;2023-02-23T10:51:21;99185.19;;;12.57;71.19
68859;BME280;55864;49.238;8.092;2023-02-23T10:53:25;99186.84;;;12.58;71.23
68859;BME280;55864;49.238;8.092;2023-02-23T10:55:28;99179.91;;;12.57;71.12
68859;BME280;55864;49.238;8.092;2023-02-23T10:57:33;99173.34;;;12.53;70.50
68859;BME280;55864;49.238;8.092;2023-02-23T10:59:34;99171.53;;;12.53;71.12
68859;BME280;55864;49.238;8.092;2023-02-23T11:01:36;99172.53;;;12.52;71.38
68859;BME280;55864;49.238;8.092;2023-02-23T11:03:39;99177.78;;;12.52;71.14